sensor_id;sensor_type;location;lat;lon;timestamp;temperature;humidity
21805;DHT22;11064;47.102;15.452;2023-10-09T04:03:31;8.50;99.90
21805;DHT22;11064;47.102;15.452;2023-10-09T04:05:57;8.40;99.90
21805;DHT22;11064;47.102;15.452;2023-10-09T04:08:25;8.30;99.90
21805;DHT22;11064;47.102;15.452;2023-10-09T04:10:56;8.10;99.90
21805;DHT22;11064;47.102;15.452;2023-10-09T04:13:27;8.10;99.90
21805;DHT22;11064;47.102;15.452;2023-10-09T04:16:03;8.00;99.90
21805;DHT22;11064;47.102;15.452;2023-10-09T04:18:35;8.10;99.90
21805;DHT22;11064;47.102;15.452;2023-10-09T04:21:05;8.00;99.90
21805;DHT22;11064;47.102;15.452;2023-10-09T04:23:45;8.00;99.90
21805;DHT22;11064;47.102;15.452;2023-10-09T04:26:30;8.00;99.90
21805;DHT22;11064;47.102;15.452;2023-10-09T04:29:00;7.90;99.90
21805;DHT22;11064;47.102;15.452;2023-10-09T04:31:28;7.90;99.90
21805;DHT22;11064;47.102;15.452;2023-10-09T04:34:06;7.80;99.90
21805;DHT22;11064;47.102;15.452;2023-10-09T04:36:51;7.80;99.90
21805;DHT22;11064;47.102;15.452;2023-10-09T04:39:27;7.80;99.90
21805;DHT22;11064;47.102;15.452;2023-10-09T04:41:56;7.70;99.90
21805;DHT22;11064;47.102;15.452;2023-10-09T04:44:42;7.70;99.90
21805;DHT22;11064;47.102;15.452;2023-10-09T04:47:28;7.70;99.90
21805;DHT22;11064;47.102;15.452;2023-10-09T04:50:24;7.80;99.90
21805;DHT22;11064;47.102;15.452;2023-10-09T04:52:56;7.70;99.90
21805;DHT22;11064;47.102;15.452;2023-10-09T04:55:31;7.80;99.90
21805;DHT22;11064;47.102;15.452;2023-10-09T04:58:04;7.90;99.90
21805;DHT22;11064;47.102;15.452;2023-10-09T05:00:32;7.90;99.90
21805;DHT22;11064;47.102;15.452;2023-10-09T05:03:01;7.90;99.90
21805;DHT22;11064;47.102;15.452;2023-10-09T05:05:32;7.90;99.90
21805;DHT22;11064;47.102;15.452;2023-10-09T05:08:08;7.90;99.90
21805;DHT22;11064;47.102;15.452;2023-10-09T05:10:56;8.00;99.90
21805;DHT22;11064;47.102;15.452;2023-10-09T05:16:11;8.10;99.90
21805;DHT22;11064;47.102;15.452;2023-10-09T05:18:57;8.10;99.90
21805;DHT22;11064;47.102;15.452;2023-10-09T05:21:27;8.20;99.90
21805;DHT22;11064;47.102;15.452;2023-10-09T05:23:57;8.20;99.90
21805;DHT22;11064;47.102;15.452;2023-10-09T05:26:46;8.10;99.90
21805;DHT22;11064;47.102;15.452;2023-10-09T05:29:19;8.10;99.90
21805;DHT22;11064;47.102;15.452;2023-10-09T05:31:51;8.10;99.90
21805;DHT22;11064;47.102;15.452;2023-10-09T05:34:36;8.10;99.90
21805;DHT22;11064;47.102;15.452;2023-10-09T05:37:20;8.20;99.90
21805;DHT22;11064;47.102;15.452;2023-10-09T05:39:59;8.10;99.90
21805;DHT22;11064;47.102;15.452;2023-10-09T05:42:35;8.10;99.90
21805;DHT22;11064;47.102;15.452;2023-10-09T05:45:08;8.20;99.90
21805;DHT22;11064;47.102;15.452;2023-10-09T05:50:31;8.10;99.90
21805;DHT22;11064;47.102;15.452;2023-10-09T05:53:02;8.20;99.90
21805;DHT22;11064;47.102;15.452;2023-10-09T05:55:29;8.20;99.90
21805;DHT22;11064;47.102;15.452;2023-10-09T05:58:03;8.30;99.90
21805;DHT22;11064;47.102;15.452;2023-10-09T06:00:49;8.40;99.90
21805;DHT22;11064;47.102;15.452;2023-10-09T06:03:34;8.40;99.90
21805;DHT22;11064;47.102;15.452;2023-10-09T06:06:11;8.50;99.90
21805;DHT22;11064;47.102;15.452;2023-10-09T06:08:47;8.60;99.90
21805;DHT22;11064;47.102;15.452;2023-10-09T06:11:32;8.70;99.90
21805;DHT22;11064;47.102;15.452;2023-10-09T06:14:00;8.80;99.90
21805;DHT22;11064;47.102;15.452;2023-10-09T06:16:36;8.90;99.90
21805;DHT22;11064;47.102;15.452;2023-10-09T06:19:11;9.00;99.90
21805;DHT22;11064;47.102;15.452;2023-10-09T06:21:49;9.20;99.90
21805;DHT22;11064;47.102;15.452;2023-10-09T06:24:21;9.20;99.90
21805;DHT22;11064;47.102;15.452;2023-10-09T06:27:06;9.30;99.90
21805;DHT22;11064;47.102;15.452;2023-10-09T06:29:32;9.30;99.90
21805;DHT22;11064;47.102;15.452;2023-10-09T06:32:05;9.30;99.90
21805;DHT22;11064;47.102;15.452;2023-10-09T06:37:20;9.40;99.90
21805;DHT22;11064;47.102;15.452;2023-10-09T06:39:50;9.40;99.90
21805;DHT22;11064;47.102;15.452;2023-10-09T06:42:36;9.40;99.90
21805;DHT22;11064;47.102;15.452;2023-10-09T06:45:07;9.40;99.90
21805;DHT22;11064;47.102;15.452;2023-10-09T06:47:35;9.50;99.90
21805;DHT22;11064;47.102;15.452;2023-10-09T06:50:09;9.50;99.90
21805;DHT22;11064;47.102;15.452;2023-10-09T06:52:50;9.50;99.90
21805;DHT22;11064;47.102;15.452;2023-10-09T06:55:38;9.50;99.90
21805;DHT22;11064;47.102;15.452;2023-10-09T06:58:21;9.50;99.90
21805;DHT22;11064;47.102;15.452;2023-10-09T07:00:54;9.60;99.90
21805;DHT22;11064;47.102;15.452;2023-10-09T07:03:23;9.80;99.90
21805;DHT22;11064;47.102;15.452;2023-10-09T07:06:18;10.00;99.90
21805;DHT22;11064;47.102;15.452;2023-10-09T07:08:53;10.20;99.90
21805;DHT22;11064;47.102;15.452;2023-10-09T07:11:42;10.40;99.90
21805;DHT22;11064;47.102;15.452;2023-10-09T07:14:14;10.60;99.90
21805;DHT22;11064;47.102;15.452;2023-10-09T07:17:03;10.80;99.90
21805;DHT22;11064;47.102;15.452;2023-10-09T07:19:48;11.10;99.90
21805;DHT22;11064;47.102;15.452;2023-10-09T07:22:14;11.30;99.90
21805;DHT22;11064;47.102;15.452;2023-10-09T07:24:50;11.60;99.90
21805;DHT22;11064;47.102;15.452;2023-10-09T07:27:27;11.60;99.90
21805;DHT22;11064;47.102;15.452;2023-10-09T07:30:18;11.60;99.90
21805;DHT22;11064;47.102;15.452;2023-10-09T07:33:04;12.00;99.90
21805;DHT22;11064;47.102;15.452;2023-10-09T07:35:41;12.00;99.90
21805;DHT22;11064;47.102;15.452;2023-10-09T07:38:20;12.20;99.90
21805;DHT22;11064;47.102;15.452;2023-10-09T07:40:47;12.20;99.90
21805;DHT22;11064;47.102;15.452;2023-10-09T07:43:45;11.90;99.90
21805;DHT22;11064;47.102;15.452;2023-10-09T07:46:16;11.90;99.90
21805;DHT22;11064;47.102;15.452;2023-10-09T07:49:18;11.90;99.90
21805;DHT22;11064;47.102;15.452;2023-10-09T07:51:55;12.10;99.90
21805;DHT22;11064;47.102;15.452;2023-10-09T07:54:23;12.10;99.90
21805;DHT22;11064;47.102;15.452;2023-10-09T07:56:58;12.30;99.90
21805;DHT22;11064;47.102;15.452;2023-10-09T07:59:42;12.20;99.90
21805;DHT22;11064;47.102;15.452;2023-10-09T08:02:23;12.50;99.90
21805;DHT22;11064;47.102;15.452;2023-10-09T08:05:01;12.40;99.90
21805;DHT22;11064;47.102;15.452;2023-10-09T08:07:32;12.60;99.90
21805;DHT22;11064;47.102;15.452;2023-10-09T08:10:05;13.00;99.90
21805;DHT22;11064;47.102;15.452;2023-10-09T08:12:43;13.40;99.90
21805;DHT22;11064;47.102;15.452;2023-10-09T08:15:16;13.70;99.90
21805;DHT22;11064;47.102;15.452;2023-10-09T08:17:49;13.90;99.90
21805;DHT22;11064;47.102;15.452;2023-10-09T08:20:33;13.70;99.90
21805;DHT22;11064;47.102;15.452;2023-10-09T08:23:22;13.70;99.90
21805;DHT22;11064;47.102;15.452;2023-10-09T08:26:04;13.90;99.90
21805;DHT22;11064;47.102;15.452;2023-10-09T08:28:39;14.10;99.90
21805;DHT22;11064;47.102;15.452;2023-10-09T08:31:16;14.00;99.90
21805;DHT22;11064;47.102;15.452;2023-10-09T08:34:02;14.10;99.90
21805;DHT22;11064;47.102;15.452;2023-10-09T08:36:29;14.10;99.90
21805;DHT22;11064;47.102;15.452;2023-10-09T08:39:05;13.90;99.90
21805;DHT22;11064;47.102;15.452;2023-10-09T08:41:51;14.30;99.90
21805;DHT22;11064;47.102;15.452;2023-10-09T08:44:20;14.70;99.90
21805;DHT22;11064;47.102;15.452;2023-10-09T08:46:49;14.60;99.90
21805;DHT22;11064;47.102;15.452;2023-10-09T08:49:17;14.80;99.90
21805;DHT22;11064;47.102;15.452;2023-10-09T08:51:44;14.10;99.90
21805;DHT22;11064;47.102;15.452;2023-10-09T08:54:11;14.10;99.90
21805;DHT22;11064;47.102;15.452;2023-10-09T08:56:41;14.20;99.90
21805;DHT22;11064;47.102;15.452;2023-10-09T08:59:16;14.40;99.90
21805;DHT22;11064;47.102;15.452;2023-10-09T09:01:48;14.40;99.90
21805;DHT22;11064;47.102;15.452;2023-10-09T09:04:38;14.60;99.90
21805;DHT22;11064;47.102;15.452;2023-10-09T09:07:05;15.10;99.90
21805;DHT22;11064;47.102;15.452;2023-10-09T09:09:31;15.00;99.90
21805;DHT22;11064;47.102;15.452;2023-10-09T09:11:59;15.20;99.90
21805;DHT22;11064;47.102;15.452;2023-10-09T09:14:38;15.30;99.90
21805;DHT22;11064;47.102;15.452;2023-10-09T09:17:08;15.50;99.90
21805;DHT22;11064;47.102;15.452;2023-10-09T09:19:37;15.60;99.90
21805;DHT22;11064;47.102;15.452;2023-10-09T09:22:03;15.70;99.90
21805;DHT22;11064;47.102;15.452;2023-10-09T09:24:40;15.70;99.90
21805;DHT22;11064;47.102;15.452;2023-10-09T09:27:43;15.40;99.90
21805;DHT22;11064;47.102;15.452;2023-10-09T09:30:25;15.10;99.90
21805;DHT22;11064;47.102;15.452;2023-10-09T09:32:57;15.10;99.90
21805;DHT22;11064;47.102;15.452;2023-10-09T09:35:59;14.80;99.90
21805;DHT22;11064;47.102;15.452;2023-10-09T09:38:29;14.80;99.90
21805;DHT22;11064;47.102;15.452;2023-10-09T09:40:56;14.90;99.90
21805;DHT22;11064;47.102;15.452;2023-10-09T09:43:23;14.90;99.90
21805;DHT22;11064;47.102;15.452;2023-10-09T09:45:53;14.90;99.90
21805;DHT22;11064;47.102;15.452;2023-10-09T09:48:23;14.90;99.90
21805;DHT22;11064;47.102;15.452;2023-10-09T09:50:49;14.90;99.90
21805;DHT22;11064;47.102;15.452;2023-10-09T09:53:19;15.10;99.90
21805;DHT22;11064;47.102;15.452;2023-10-09T09:55:54;15.30;99.90
21805;DHT22;11064;47.102;15.452;2023-10-09T09:58:25;15.50;99.90
21805;DHT22;11064;47.102;15.452;2023-10-09T10:00:59;15.60;99.90
21805;DHT22;11064;47.102;15.452;2023-10-09T10:03:37;16.00;99.90
21805;DHT22;11064;47.102;15.452;2023-10-09T10:06:08;16.30;99.90
21805;DHT22;11064;47.102;15.452;2023-10-09T10:08:38;16.10;99.90
21805;DHT22;11064;47.102;15.452;2023-10-09T10:11:07;16.30;99.90
21805;DHT22;11064;47.102;15.452;2023-10-09T10:16:10;16.20;99.90
21805;DHT22;11064;47.102;15.452;2023-10-09T10:19:04;16.20;99.90
21805;DHT22;11064;47.102;15.452;2023-10-09T10:21:47;16.00;99.90
21805;DHT22;11064;47.102;15.452;2023-10-09T10:27:15;15.80;99.90
21805;DHT22;11064;47.102;15.452;2023-10-09T10:33:00;16.10;99.90
21805;DHT22;11064;47.102;15.452;2023-10-09T10:35:36;16.20;99.90
21805;DHT22;11064;47.102;15.452;2023-10-09T10:40:50;16.50;99.90
21805;DHT22;11064;47.102;15.452;2023-10-09T10:43:26;16.70;99.90
21805;DHT22;11064;47.102;15.452;2023-10-09T10:46:07;16.70;99.90
21805;DHT22;11064;47.102;15.452;2023-10-09T10:48:52;16.80;99.90
21805;DHT22;11064;47.102;15.452;2023-10-09T10:51:34;16.80;99.90
21805;DHT22;11064;47.102;15.452;2023-10-09T10:54:04;17.40;99.90
21805;DHT22;11064;47.102;15.452;2023-10-09T10:56:50;17.60;99.90
21805;DHT22;11064;47.102;15.452;2023-10-09T10:59:20;17.90;99.90
21805;DHT22;11064;47.102;15.452;2023-10-09T11:01:53;17.70;99.90
21805;DHT22;11064;47.102;15.452;2023-10-09T11:04:28;17.50;99.90
21805;DHT22;11064;47.102;15.452;2023-10-09T11:06:58;17.00;99.90
21805;DHT22;11064;47.102;15.452;2023-10-09T11:09:52;16.70;99.90
21805;DHT22;11064;47.102;15.452;2023-10-09T11:12:45;16.50;99.90
21805;DHT22;11064;47.102;15.452;2023-10-09T11:15:40;16.60;99.90
21805;DHT22;11064;47.102;15.452;2023-10-09T11:18:44;16.20;99.90
21805;DHT22;11064;47.102;15.452;2023-10-09T11:21:14;16.50;99.90
21805;DHT22;11064;47.102;15.452;2023-10-09T11:23:41;16.70;99.90
21805;DHT22;11064;47.102;15.452;2023-10-09T11:26:16;16.80;99.90
21805;DHT22;11064;47.102;15.452;2023-10-09T11:29:10;16.90;99.90
21805;DHT22;11064;47.102;15.452;2023-10-09T11:32:05;17.10;99.90
21805;DHT22;11064;47.102;15.452;2023-10-09T11:34:34;17.40;99.90
21805;DHT22;11064;47.102;15.452;2023-10-09T11:39:36;17.70;99.90
21805;DHT22;11064;47.102;15.452;2023-10-09T11:42:06;17.90;99.90
21805;DHT22;11064;47.102;15.452;2023-10-09T11:47:05;17.80;99.90
21805;DHT22;11064;47.102;15.452;2023-10-09T11:50:02;17.90;99.90
21805;DHT22;11064;47.102;15.452;2023-10-09T11:52:29;17.90;99.90
21805;DHT22;11064;47.102;15.452;2023-10-09T11:55:07;17.90;99.90
21805;DHT22;11064;47.102;15.452;2023-10-09T11:57:41;18.00;99.90
21805;DHT22;11064;47.102;15.452;2023-10-09T12:00:07;18.10;99.90
21805;DHT22;11064;47.102;15.452;2023-10-09T12:02:37;18.10;99.90
21805;DHT22;11064;47.102;15.452;2023-10-09T12:05:10;18.40;99.90
21805;DHT22;11064;47.102;15.452;2023-10-09T12:07:46;18.50;99.90
21805;DHT22;11064;47.102;15.452;2023-10-09T12:10:12;18.50;99.90
21805;DHT22;11064;47.102;15.452;2023-10-09T12:12:41;18.50;99.90
21805;DHT22;11064;47.102;15.452;2023-10-09T12:15:12;18.70;99.90
21805;DHT22;11064;47.102;15.452;2023-10-09T12:17:44;19.00;99.90
21805;DHT22;11064;47.102;15.452;2023-10-09T12:20:16;19.10;99.90
21805;DHT22;11064;47.102;15.452;2023-10-09T12:23:04;19.10;99.90
21805;DHT22;11064;47.102;15.452;2023-10-09T12:25:34;19.10;99.90
21805;DHT22;11064;47.102;15.452;2023-10-09T12:28:01;19.20;99.90
21805;DHT22;11064;47.102;15.452;2023-10-09T12:30:31;18.70;99.90
21805;DHT22;11064;47.102;15.452;2023-10-09T12:33:03;18.70;99.90
21805;DHT22;11064;47.102;15.452;2023-10-09T12:35:29;18.70;99.90
21805;DHT22;11064;47.102;15.452;2023-10-09T12:37:59;18.60;99.90
21805;DHT22;11064;47.102;15.452;2023-10-09T12:40:26;18.90;99.90
21805;DHT22;11064;47.102;15.452;2023-10-09T12:42:57;19.20;99.90
21805;DHT22;11064;47.102;15.452;2023-10-09T12:45:25;19.50;99.90
21805;DHT22;11064;47.102;15.452;2023-10-09T12:47:55;19.80;99.90
21805;DHT22;11064;47.102;15.452;2023-10-09T12:50:25;19.60;99.90
21805;DHT22;11064;47.102;15.452;2023-10-09T12:52:57;19.50;99.90
21805;DHT22;11064;47.102;15.452;2023-10-09T12:55:39;19.20;99.90
21805;DHT22;11064;47.102;15.452;2023-10-09T12:58:09;18.90;99.90
21805;DHT22;11064;47.102;15.452;2023-10-09T13:00:39;18.90;99.90
21805;DHT22;11064;47.102;15.452;2023-10-09T13:03:13;18.80;99.90
21805;DHT22;11064;47.102;15.452;2023-10-09T13:05:51;18.60;99.90
21805;DHT22;11064;47.102;15.452;2023-10-09T13:08:28;18.70;99.90
21805;DHT22;11064;47.102;15.452;2023-10-09T13:11:05;18.60;99.90
21805;DHT22;11064;47.102;15.452;2023-10-09T13:13:41;18.40;99.90
21805;DHT22;11064;47.102;15.452;2023-10-09T13:16:17;18.20;99.90
21805;DHT22;11064;47.102;15.452;2023-10-09T13:18:53;18.10;99.90
21805;DHT22;11064;47.102;15.452;2023-10-09T13:21:21;18.10;99.90
21805;DHT22;11064;47.102;15.452;2023-10-09T13:23:48;18.10;99.90
21805;DHT22;11064;47.102;15.452;2023-10-09T13:26:19;18.10;99.90
21805;DHT22;11064;47.102;15.452;2023-10-09T13:28:50;18.10;99.90
21805;DHT22;11064;47.102;15.452;2023-10-09T13:31:16;18.00;99.90
21805;DHT22;11064;47.102;15.452;2023-10-09T13:33:43;18.00;99.90
21805;DHT22;11064;47.102;15.452;2023-10-09T13:36:11;18.20;99.90
21805;DHT22;11064;47.102;15.452;2023-10-09T13:38:56;18.10;99.90
21805;DHT22;11064;47.102;15.452;2023-10-09T13:41:23;18.10;99.90
21805;DHT22;11064;47.102;15.452;2023-10-09T13:43:55;18.30;99.90
21805;DHT22;11064;47.102;15.452;2023-10-09T13:46:23;18.40;99.90
21805;DHT22;11064;47.102;15.452;2023-10-09T13:48:50;18.40;99.90
21805;DHT22;11064;47.102;15.452;2023-10-09T13:51:18;18.30;99.90
21805;DHT22;11064;47.102;15.452;2023-10-09T13:53:45;18.30;99.90
21805;DHT22;11064;47.102;15.452;2023-10-09T13:56:19;18.20;99.90
21805;DHT22;11064;47.102;15.452;2023-10-09T13:58:50;18.20;99.90
21805;DHT22;11064;47.102;15.452;2023-10-09T14:01:20;18.20;99.90
21805;DHT22;11064;47.102;15.452;2023-10-09T14:03:56;18.20;99.90
21805;DHT22;11064;47.102;15.452;2023-10-09T14:06:23;18.20;99.90
21805;DHT22;11064;47.102;15.452;2023-10-09T14:09:03;18.20;99.90
21805;DHT22;11064;47.102;15.452;2023-10-09T14:11:31;18.40;99.90
21805;DHT22;11064;47.102;15.452;2023-10-09T14:13:57;18.30;99.90
21805;DHT22;11064;47.102;15.452;2023-10-09T14:16:26;18.20;99.90
21805;DHT22;11064;47.102;15.452;2023-10-09T14:18:59;18.10;99.90
21805;DHT22;11064;47.102;15.452;2023-10-09T14:21:27;17.80;99.90
21805;DHT22;11064;47.102;15.452;2023-10-09T14:23:56;17.50;99.90
21805;DHT22;11064;47.102;15.452;2023-10-09T14:26:28;17.20;99.90
21805;DHT22;11064;47.102;15.452;2023-10-09T14:28:56;17.10;99.90
21805;DHT22;11064;47.102;15.452;2023-10-09T14:31:28;17.10;99.90
21805;DHT22;11064;47.102;15.452;2023-10-09T14:33:55;17.00;99.90
21805;DHT22;11064;47.102;15.452;2023-10-09T14:36:22;16.90;99.90
21805;DHT22;11064;47.102;15.452;2023-10-09T14:38:51;16.80;99.90
21805;DHT22;11064;47.102;15.452;2023-10-09T14:41:22;16.70;99.90
21805;DHT22;11064;47.102;15.452;2023-10-09T14:43:51;16.50;99.90
21805;DHT22;11064;47.102;15.452;2023-10-09T14:46:18;16.50;99.90
21805;DHT22;11064;47.102;15.452;2023-10-09T14:48:51;16.50;99.90
21805;DHT22;11064;47.102;15.452;2023-10-09T14:51:21;16.40;99.90
21805;DHT22;11064;47.102;15.452;2023-10-09T14:53:58;16.40;99.90
21805;DHT22;11064;47.102;15.452;2023-10-09T14:56:28;16.40;99.90
21805;DHT22;11064;47.102;15.452;2023-10-09T14:58:58;16.30;99.90
21805;DHT22;11064;47.102;15.452;2023-10-09T15:01:30;16.20;99.90
21805;DHT22;11064;47.102;15.452;2023-10-09T15:04:00;16.20;99.90
21805;DHT22;11064;47.102;15.452;2023-10-09T15:06:29;16.00;99.90
21805;DHT22;11064;47.102;15.452;2023-10-09T15:08:59;15.90;99.90
21805;DHT22;11064;47.102;15.452;2023-10-09T15:11:35;15.80;99.90
21805;DHT22;11064;47.102;15.452;2023-10-09T15:14:04;15.70;99.90
21805;DHT22;11064;47.102;15.452;2023-10-09T15:16:31;15.60;99.90
21805;DHT22;11064;47.102;15.452;2023-10-09T15:18:57;15.50;99.90
21805;DHT22;11064;47.102;15.452;2023-10-09T15:21:24;15.50;99.90
21805;DHT22;11064;47.102;15.452;2023-10-09T15:23:57;15.50;99.90
21805;DHT22;11064;47.102;15.452;2023-10-09T15:26:23;15.40;99.90
21805;DHT22;11064;47.102;15.452;2023-10-09T15:28:53;15.40;99.90
21805;DHT22;11064;47.102;15.452;2023-10-09T15:31:19;15.40;99.90
21805;DHT22;11064;47.102;15.452;2023-10-09T15:33:47;15.40;99.90
21805;DHT22;11064;47.102;15.452;2023-10-09T15:36:16;15.30;99.90
21805;DHT22;11064;47.102;15.452;2023-10-09T15:38:51;15.30;99.90
21805;DHT22;11064;47.102;15.452;2023-10-09T15:41:17;15.20;99.90
21805;DHT22;11064;47.102;15.452;2023-10-09T15:43:44;15.30;99.90
21805;DHT22;11064;47.102;15.452;2023-10-09T15:46:14;15.20;99.90
21805;DHT22;11064;47.102;15.452;2023-10-09T15:48:41;15.20;99.90
21805;DHT22;11064;47.102;15.452;2023-10-09T15:51:14;15.10;99.90
21805;DHT22;11064;47.102;15.452;2023-10-09T15:53:43;15.10;99.90
21805;DHT22;11064;47.102;15.452;2023-10-09T15:56:10;15.10;99.90
21805;DHT22;11064;47.102;15.452;2023-10-09T15:58:41;15.00;99.90
21805;DHT22;11064;47.102;15.452;2023-10-09T16:01:16;14.90;99.90
21805;DHT22;11064;47.102;15.452;2023-10-09T16:03:46;14.80;99.90
21805;DHT22;11064;47.102;15.452;2023-10-09T16:06:17;14.80;99.90
21805;DHT22;11064;47.102;15.452;2023-10-09T16:08:46;14.70;99.90
21805;DHT22;11064;47.102;15.452;2023-10-09T16:11:17;14.70;99.90
21805;DHT22;11064;47.102;15.452;2023-10-09T16:13:42;14.70;99.90
21805;DHT22;11064;47.102;15.452;2023-10-09T16:16:08;14.60;99.90
21805;DHT22;11064;47.102;15.452;2023-10-09T16:18:35;14.50;99.90
21805;DHT22;11064;47.102;15.452;2023-10-09T16:21:07;14.40;99.90
21805;DHT22;11064;47.102;15.452;2023-10-09T16:23:38;14.40;99.90
21805;DHT22;11064;47.102;15.452;2023-10-09T16:26:03;14.40;99.90
21805;DHT22;11064;47.102;15.452;2023-10-09T16:28:32;14.40;99.90
21805;DHT22;11064;47.102;15.452;2023-10-09T16:30:59;14.50;99.90
21805;DHT22;11064;47.102;15.452;2023-10-09T16:33:26;14.50;99.90
21805;DHT22;11064;47.102;15.452;2023-10-09T16:35:53;14.40;99.90
21805;DHT22;11064;47.102;15.452;2023-10-09T16:38:25;14.30;99.90
21805;DHT22;11064;47.102;15.452;2023-10-09T16:40:55;14.20;99.90
21805;DHT22;11064;47.102;15.452;2023-10-09T16:43:24;14.00;99.90
21805;DHT22;11064;47.102;15.452;2023-10-09T16:45:54;14.00;99.90
21805;DHT22;11064;47.102;15.452;2023-10-09T16:48:26;14.00;99.90
21805;DHT22;11064;47.102;15.452;2023-10-09T16:50:56;13.90;99.90
21805;DHT22;11064;47.102;15.452;2023-10-09T16:53:24;14.00;99.90
21805;DHT22;11064;47.102;15.452;2023-10-09T16:55:50;13.90;99.90
21805;DHT22;11064;47.102;15.452;2023-10-09T16:58:20;13.90;99.90
21805;DHT22;11064;47.102;15.452;2023-10-09T17:00:46;13.80;99.90
21805;DHT22;11064;47.102;15.452;2023-10-09T17:03:12;13.70;99.90
21805;DHT22;11064;47.102;15.452;2023-10-09T17:05:40;13.70;99.90
21805;DHT22;11064;47.102;15.452;2023-10-09T17:08:21;13.60;99.90
21805;DHT22;11064;47.102;15.452;2023-10-09T17:10:49;13.50;99.90
21805;DHT22;11064;47.102;15.452;2023-10-09T17:13:17;13.40;99.90
21805;DHT22;11064;47.102;15.452;2023-10-09T17:15:48;13.40;99.90
21805;DHT22;11064;47.102;15.452;2023-10-09T17:18:23;13.30;99.90
21805;DHT22;11064;47.102;15.452;2023-10-09T17:20:56;13.40;99.90
21805;DHT22;11064;47.102;15.452;2023-10-09T17:23:25;13.30;99.90
21805;DHT22;11064;47.102;15.452;2023-10-09T17:25:51;13.50;99.90
21805;DHT22;11064;47.102;15.452;2023-10-09T17:28:24;13.50;99.90
21805;DHT22;11064;47.102;15.452;2023-10-09T17:31:00;13.50;99.90
21805;DHT22;11064;47.102;15.452;2023-10-09T17:33:27;13.60;99.90
21805;DHT22;11064;47.102;15.452;2023-10-09T17:35:53;13.60;99.90
21805;DHT22;11064;47.102;15.452;2023-10-09T17:38:21;13.60;99.90
21805;DHT22;11064;47.102;15.452;2023-10-09T17:40:47;13.60;99.90
21805;DHT22;11064;47.102;15.452;2023-10-09T17:43:20;13.60;99.90
21805;DHT22;11064;47.102;15.452;2023-10-09T17:45:48;13.70;99.90
21805;DHT22;11064;47.102;15.452;2023-10-09T17:48:24;13.80;99.90
21805;DHT22;11064;47.102;15.452;2023-10-09T17:50:50;13.90;99.90
21805;DHT22;11064;47.102;15.452;2023-10-09T17:53:18;13.90;99.90
21805;DHT22;11064;47.102;15.452;2023-10-09T17:55:45;13.90;99.90
21805;DHT22;11064;47.102;15.452;2023-10-09T17:58:13;13.90;99.90
21805;DHT22;11064;47.102;15.452;2023-10-09T18:00:41;13.90;99.90
21805;DHT22;11064;47.102;15.452;2023-10-09T18:03:11;13.90;99.90
21805;DHT22;11064;47.102;15.452;2023-10-09T18:05:41;13.90;99.90
21805;DHT22;11064;47.102;15.452;2023-10-09T18:08:08;13.90;99.90
21805;DHT22;11064;47.102;15.452;2023-10-09T18:10:43;13.90;99.90
21805;DHT22;11064;47.102;15.452;2023-10-09T18:13:11;13.80;99.90
21805;DHT22;11064;47.102;15.452;2023-10-09T18:15:43;13.80;99.90
21805;DHT22;11064;47.102;15.452;2023-10-09T18:18:10;13.80;99.90
21805;DHT22;11064;47.102;15.452;2023-10-09T18:20:42;13.70;99.90
21805;DHT22;11064;47.102;15.452;2023-10-09T18:23:09;13.60;99.90
21805;DHT22;11064;47.102;15.452;2023-10-09T18:25:36;13.60;99.90
21805;DHT22;11064;47.102;15.452;2023-10-09T18:28:04;13.50;99.90
21805;DHT22;11064;47.102;15.452;2023-10-09T18:30:30;13.50;99.90
21805;DHT22;11064;47.102;15.452;2023-10-09T18:32:57;13.50;99.90
21805;DHT22;11064;47.102;15.452;2023-10-09T18:35:26;13.50;99.90
21805;DHT22;11064;47.102;15.452;2023-10-09T18:37:58;13.50;99.90
21805;DHT22;11064;47.102;15.452;2023-10-09T18:40:27;13.50;99.90
21805;DHT22;11064;47.102;15.452;2023-10-09T18:43:02;13.60;99.90
21805;DHT22;11064;47.102;15.452;2023-10-09T18:45:43;13.60;99.90
21805;DHT22;11064;47.102;15.452;2023-10-09T18:48:11;13.50;99.90
21805;DHT22;11064;47.102;15.452;2023-10-09T18:50:42;13.40;99.90
21805;DHT22;11064;47.102;15.452;2023-10-09T18:53:09;13.40;99.90
21805;DHT22;11064;47.102;15.452;2023-10-09T18:55:37;13.40;99.90
21805;DHT22;11064;47.102;15.452;2023-10-09T18:58:03;13.40;99.90
21805;DHT22;11064;47.102;15.452;2023-10-09T19:00:31;13.40;99.90
21805;DHT22;11064;47.102;15.452;2023-10-09T19:03:00;13.40;99.90
21805;DHT22;11064;47.102;15.452;2023-10-09T19:05:27;13.50;99.90
21805;DHT22;11064;47.102;15.452;2023-10-09T19:07:54;13.40;99.90
21805;DHT22;11064;47.102;15.452;2023-10-09T19:10:21;13.40;99.90
21805;DHT22;11064;47.102;15.452;2023-10-09T19:12:47;13.60;99.90
21805;DHT22;11064;47.102;15.452;2023-10-09T19:15:14;13.60;99.90
21805;DHT22;11064;47.102;15.452;2023-10-09T19:17:41;13.60;99.90
21805;DHT22;11064;47.102;15.452;2023-10-09T19:20:08;13.60;99.90
21805;DHT22;11064;47.102;15.452;2023-10-09T19:22:37;13.50;99.90
21805;DHT22;11064;47.102;15.452;2023-10-09T19:25:08;13.50;99.90
21805;DHT22;11064;47.102;15.452;2023-10-09T19:27:47;13.60;99.90
21805;DHT22;11064;47.102;15.452;2023-10-09T19:30:14;13.60;99.90
21805;DHT22;11064;47.102;15.452;2023-10-09T19:32:47;13.70;99.90
21805;DHT22;11064;47.102;15.452;2023-10-09T19:35:14;13.70;99.90
21805;DHT22;11064;47.102;15.452;2023-10-09T19:37:52;13.70;99.90
21805;DHT22;11064;47.102;15.452;2023-10-09T19:40:19;13.70;99.90
21805;DHT22;11064;47.102;15.452;2023-10-09T19:42:48;13.50;99.90
21805;DHT22;11064;47.102;15.452;2023-10-09T19:45:14;13.40;99.90
21805;DHT22;11064;47.102;15.452;2023-10-09T19:47:47;13.50;99.90
21805;DHT22;11064;47.102;15.452;2023-10-09T19:50:14;13.50;99.90
21805;DHT22;11064;47.102;15.452;2023-10-09T19:52:44;13.50;99.90
21805;DHT22;11064;47.102;15.452;2023-10-09T19:55:12;13.80;99.90
21805;DHT22;11064;47.102;15.452;2023-10-09T19:57:38;13.90;99.90
21805;DHT22;11064;47.102;15.452;2023-10-09T20:00:09;13.90;99.90
21805;DHT22;11064;47.102;15.452;2023-10-09T20:02:42;14.00;99.90
21805;DHT22;11064;47.102;15.452;2023-10-09T20:05:08;14.20;99.90
21805;DHT22;11064;47.102;15.452;2023-10-09T20:07:35;14.30;99.90
21805;DHT22;11064;47.102;15.452;2023-10-09T20:10:07;14.20;99.90
21805;DHT22;11064;47.102;15.452;2023-10-09T20:12:34;14.10;99.90
21805;DHT22;11064;47.102;15.452;2023-10-09T20:15:00;14.00;99.90
21805;DHT22;11064;47.102;15.452;2023-10-09T20:17:27;13.90;99.90
21805;DHT22;11064;47.102;15.452;2023-10-09T20:19:53;13.70;99.90